createdAt,value
2017-08-05T00:01:08.585Z,23.10
2017-08-05T00:03:36.323Z,23.10
2017-08-05T00:06:04.066Z,23.10
2017-08-05T00:08:31.783Z,23.10
2017-08-05T00:10:59.511Z,23.10
2017-08-05T00:13:27.971Z,23.10
2017-08-05T00:15:55.695Z,23.00
2017-08-05T00:18:23.409Z,23.00
2017-08-05T00:20:51.130Z,22.90
2017-08-05T00:23:18.866Z,22.90
2017-08-05T00:25:46.564Z,22.80
2017-08-05T00:28:14.314Z,22.80
2017-08-05T00:30:42.039Z,22.70
2017-08-05T00:33:09.763Z,22.70
2017-08-05T00:35:37.491Z,22.70
2017-08-05T00:38:05.258Z,22.70
2017-08-05T00:40:32.977Z,22.70
2017-08-05T00:43:00.699Z,22.70
2017-08-05T00:45:29.353Z,22.60
2017-08-05T00:47:57.079Z,22.60
2017-08-05T00:50:24.799Z,22.60
2017-08-05T00:52:52.515Z,22.60
2017-08-05T00:55:20.246Z,22.50
2017-08-05T00:57:47.964Z,22.50
2017-08-05T01:00:15.711Z,22.50
2017-08-05T01:02:43.439Z,22.50
2017-08-05T01:05:11.179Z,22.40
2017-08-05T01:07:39.679Z,22.40
2017-08-05T01:10:07.394Z,22.30
2017-08-05T01:12:35.379Z,22.40
2017-08-05T01:15:03.135Z,22.30
2017-08-05T01:17:31.876Z,22.30
2017-08-05T01:19:59.607Z,22.20
2017-08-05T01:22:28.102Z,22.10
2017-08-05T01:24:55.838Z,22.10
2017-08-05T01:27:23.546Z,22.10
2017-08-05T01:29:51.283Z,22.10
2017-08-05T01:32:19.025Z,22.10
2017-08-05T01:34:46.791Z,22.10
2017-08-05T01:37:15.291Z,22.10
2017-08-05T01:39:43.035Z,22.00
2017-08-05T01:42:10.779Z,22.00
2017-08-05T01:44:38.520Z,21.90
2017-08-05T01:47:06.319Z,21.90
2017-08-05T01:49:34.707Z,21.80
2017-08-05T01:52:02.472Z,21.80
2017-08-05T01:54:30.215Z,21.70
2017-08-05T01:56:57.998Z,21.70
2017-08-05T01:59:25.764Z,21.70
2017-08-05T02:01:53.515Z,21.70
2017-08-05T02:04:21.271Z,21.70
2017-08-05T02:06:49.001Z,21.70
2017-08-05T02:09:16.752Z,21.60
2017-08-05T02:11:44.490Z,21.60
2017-08-05T02:14:12.265Z,21.60
2017-08-05T02:16:40.013Z,21.60
2017-08-05T02:19:07.735Z,21.50
2017-08-05T02:21:36.459Z,21.50
2017-08-05T02:24:04.187Z,21.50
2017-08-05T02:26:31.915Z,21.50
2017-08-05T02:28:59.656Z,21.40
2017-08-05T02:31:27.381Z,21.40
2017-08-05T02:33:55.108Z,21.40
2017-08-05T02:36:22.822Z,21.40
2017-08-05T02:38:50.551Z,21.40
2017-08-05T02:41:18.295Z,21.30
2017-08-05T02:43:46.006Z,21.30
2017-08-05T02:46:13.751Z,21.20
2017-08-05T02:48:41.484Z,21.20
2017-08-05T02:51:09.234Z,21.30
2017-08-05T02:53:37.567Z,21.30
2017-08-05T02:56:05.326Z,21.30
2017-08-05T02:58:33.238Z,21.30
2017-08-05T03:01:00.962Z,21.30
2017-08-05T03:03:28.695Z,21.30
2017-08-05T03:05:56.419Z,21.20
2017-08-05T03:08:24.131Z,21.20
2017-08-05T03:10:51.864Z,21.20
2017-08-05T03:13:19.615Z,21.20
2017-08-05T03:15:47.341Z,21.20
2017-08-05T03:18:15.064Z,21.20
2017-08-05T03:20:42.790Z,21.30
2017-08-05T03:23:10.530Z,21.30
2017-08-05T03:25:38.278Z,21.30
2017-08-05T03:28:06.008Z,21.20
2017-08-05T03:30:33.803Z,21.20
2017-08-05T03:33:01.538Z,21.10
2017-08-05T03:35:29.950Z,21.00
2017-08-05T03:37:57.696Z,21.00
2017-08-05T03:40:25.422Z,21.00
2017-08-05T03:42:53.144Z,20.90
2017-08-05T03:45:20.883Z,20.90
2017-08-05T03:47:48.626Z,20.80
2017-08-05T03:50:16.362Z,20.80
2017-08-05T03:52:45.007Z,20.80
2017-08-05T03:55:12.739Z,20.80
2017-08-05T03:57:40.495Z,20.80
2017-08-05T04:00:09.030Z,20.80
2017-08-05T04:02:36.751Z,20.80
2017-08-05T04:05:05.242Z,20.80
2017-08-05T04:07:32.964Z,20.80
2017-08-05T04:10:00.697Z,20.80
2017-08-05T04:12:28.431Z,20.80
2017-08-05T04:14:56.171Z,20.80
2017-08-05T04:17:24.673Z,20.80
2017-08-05T04:19:52.389Z,20.80
2017-08-05T04:22:20.129Z,20.80
2017-08-05T04:24:47.870Z,20.80
2017-08-05T04:27:15.595Z,20.80
2017-08-05T04:29:44.083Z,20.80
2017-08-05T04:32:13.175Z,20.90
2017-08-05T04:34:40.912Z,20.80
2017-08-05T04:37:08.639Z,20.90
2017-08-05T04:39:36.383Z,20.80
2017-08-05T04:42:04.111Z,20.90
2017-08-05T04:44:31.843Z,20.90
2017-08-05T04:46:59.589Z,21.00
2017-08-05T04:49:27.312Z,21.00
2017-08-05T04:51:55.039Z,21.00
2017-08-05T04:54:22.783Z,21.00
2017-08-05T04:56:50.503Z,21.00
2017-08-05T04:59:18.222Z,21.00
2017-08-05T05:01:46.968Z,21.10
2017-08-05T05:04:14.698Z,21.10
2017-08-05T05:06:42.430Z,21.20
2017-08-05T05:09:10.275Z,21.30
2017-08-05T05:11:38.005Z,21.40
2017-08-05T05:14:05.746Z,21.40
2017-08-05T05:16:33.476Z,21.50
2017-08-05T05:19:01.214Z,21.50
2017-08-05T05:21:29.703Z,21.60
2017-08-05T05:23:57.448Z,21.60
2017-08-05T05:26:25.175Z,21.70
2017-08-05T05:28:52.900Z,21.80
2017-08-05T05:31:20.642Z,21.90
2017-08-05T05:33:49.075Z,21.90
2017-08-05T05:36:16.815Z,22.00
2017-08-05T05:38:44.546Z,22.10
2017-08-05T05:41:13.044Z,22.10
2017-08-05T05:43:40.767Z,22.10
2017-08-05T05:46:08.506Z,22.20
2017-08-05T05:48:36.234Z,22.30
2017-08-05T05:51:03.983Z,22.40
2017-08-05T05:53:31.716Z,22.40
2017-08-05T05:55:59.444Z,22.50
2017-08-05T05:58:27.179Z,22.60
2017-08-05T06:00:55.676Z,22.60
2017-08-05T06:03:23.396Z,22.60
2017-08-05T06:05:51.538Z,22.70
2017-08-05T06:08:19.275Z,22.80
2017-08-05T06:10:46.991Z,22.90
2017-08-05T06:13:14.726Z,23.00
2017-08-05T06:15:42.469Z,23.00
2017-08-05T06:18:10.239Z,23.00
2017-08-05T06:20:37.963Z,23.10
2017-08-05T06:23:05.694Z,23.10
2017-08-05T06:25:33.460Z,23.10
2017-08-05T06:28:01.754Z,23.20
2017-08-05T06:30:29.475Z,23.20
2017-08-05T06:32:57.264Z,23.30
2017-08-05T06:35:25.011Z,23.30
2017-08-05T06:37:52.760Z,23.50
2017-08-05T06:40:20.522Z,23.60
2017-08-05T06:42:48.290Z,23.70
2017-08-05T06:45:16.472Z,23.70
2017-08-05T06:47:44.194Z,23.80
2017-08-05T06:50:11.910Z,23.80
2017-08-05T06:52:39.656Z,24.00
2017-08-05T06:55:07.382Z,24.20
2017-08-05T06:57:35.103Z,24.30
2017-08-05T07:00:02.816Z,24.20
2017-08-05T07:02:30.546Z,24.20
2017-08-05T07:04:58.267Z,24.10
2017-08-05T07:07:26.011Z,24.20
2017-08-05T07:09:54.505Z,24.10
2017-08-05T07:12:22.266Z,24.10
2017-08-05T07:14:50.039Z,24.20
2017-08-05T07:17:17.772Z,24.20
2017-08-05T07:19:45.508Z,24.20
2017-08-05T07:22:13.223Z,24.40
2017-08-05T07:24:40.974Z,24.40
2017-08-05T07:27:09.493Z,24.50
2017-08-05T07:29:37.265Z,24.70
2017-08-05T07:32:06.709Z,24.80
2017-08-05T07:34:34.687Z,25.00
2017-08-05T07:37:03.227Z,25.00
2017-08-05T07:39:30.991Z,25.00
2017-08-05T07:41:58.744Z,25.10
2017-08-05T07:44:26.503Z,25.20
2017-08-05T07:46:54.276Z,25.20
2017-08-05T07:49:22.060Z,25.20
2017-08-05T07:51:49.840Z,25.30
2017-08-05T07:54:17.600Z,25.30
2017-08-05T07:56:45.338Z,25.30
2017-08-05T07:59:14.116Z,25.30
2017-08-05T08:01:41.885Z,25.30
2017-08-05T08:04:09.616Z,25.40
2017-08-05T08:06:37.391Z,25.60
2017-08-05T08:09:05.151Z,25.70
2017-08-05T08:11:32.884Z,25.70
2017-08-05T08:14:00.659Z,25.60
2017-08-05T08:16:28.397Z,25.70
2017-08-05T08:18:56.137Z,25.80
2017-08-05T08:21:23.902Z,26.10
2017-08-05T08:23:51.696Z,26.20
2017-08-05T08:26:19.663Z,26.30
2017-08-05T08:28:47.475Z,26.40
2017-08-05T08:31:15.476Z,26.40
2017-08-05T08:33:43.227Z,26.50
2017-08-05T08:36:25.957Z,26.60
2017-08-05T08:38:53.699Z,26.60
2017-08-05T08:41:21.452Z,26.60
2017-08-05T08:43:49.229Z,26.50
2017-08-05T08:46:16.964Z,26.60
2017-08-05T08:48:46.186Z,26.50
2017-08-05T08:51:13.936Z,26.50
2017-08-05T08:53:41.787Z,26.60
2017-08-05T08:56:10.297Z,26.80
2017-08-05T08:58:38.048Z,26.80
2017-08-05T09:01:05.838Z,26.80
2017-08-05T09:03:33.586Z,26.80
2017-08-05T09:06:01.316Z,26.90
2017-08-05T09:08:29.080Z,26.90
2017-08-05T09:10:57.016Z,26.90
2017-08-05T09:13:24.840Z,26.90
2017-08-05T09:15:52.628Z,27.00
2017-08-05T09:18:20.378Z,27.00
2017-08-05T09:20:48.112Z,27.10
2017-08-05T09:23:16.633Z,27.30
2017-08-05T09:25:45.278Z,27.30
2017-08-05T09:28:13.200Z,27.30
2017-08-05T09:30:41.041Z,27.40
2017-08-05T09:33:08.823Z,27.50
2017-08-05T09:35:36.545Z,27.50
2017-08-05T09:38:04.280Z,27.50
2017-08-05T09:40:32.021Z,27.60
2017-08-05T09:42:59.774Z,27.60
2017-08-05T09:45:27.511Z,27.60
2017-08-05T09:47:55.303Z,27.70
2017-08-05T09:50:23.045Z,28.00
2017-08-05T09:52:50.873Z,28.00
2017-08-05T09:55:18.629Z,28.00
2017-08-05T09:57:46.603Z,28.00
2017-08-05T10:00:14.328Z,28.00
2017-08-05T10:02:42.068Z,28.10
2017-08-05T10:05:09.853Z,28.30
2017-08-05T10:07:37.592Z,28.50
2017-08-05T10:10:06.455Z,28.60
2017-08-05T10:12:34.982Z,28.90
2017-08-05T10:15:02.761Z,28.90
2017-08-05T10:17:30.510Z,29.20
2017-08-05T10:20:00.166Z,29.30
2017-08-05T10:22:27.924Z,29.10
2017-08-05T10:24:55.671Z,28.80
2017-08-05T10:27:23.437Z,29.00
2017-08-05T10:29:52.253Z,29.30
2017-08-05T10:32:20.013Z,29.50
2017-08-05T10:34:48.171Z,29.70
2017-08-05T10:37:15.958Z,29.90
2017-08-05T10:39:43.694Z,30.00
2017-08-05T10:42:12.446Z,30.00
2017-08-05T10:44:40.187Z,29.80
2017-08-05T10:47:07.938Z,29.90
2017-08-05T10:49:35.697Z,29.80
2017-08-05T10:52:04.187Z,29.40
2017-08-05T10:54:31.944Z,29.40
2017-08-05T10:56:59.752Z,29.40
2017-08-05T10:59:27.516Z,29.40
2017-08-05T11:01:55.274Z,29.80
2017-08-05T11:04:24.030Z,30.00
2017-08-05T11:06:51.772Z,30.10
2017-08-05T11:09:19.507Z,30.10
2017-08-05T11:11:47.272Z,30.10
2017-08-05T11:14:15.002Z,29.90
2017-08-05T11:16:42.783Z,30.10
2017-08-05T11:19:10.536Z,30.10
2017-08-05T11:21:38.278Z,30.00
2017-08-05T11:24:07.446Z,30.00
2017-08-05T11:26:35.203Z,30.10
2017-08-05T11:29:02.978Z,30.30
2017-08-05T11:31:30.730Z,30.30
2017-08-05T11:34:00.471Z,30.10
2017-08-05T11:36:29.023Z,30.20
2017-08-05T11:38:56.761Z,30.20
2017-08-05T11:41:24.492Z,30.30
2017-08-05T11:43:54.134Z,30.30
2017-08-05T11:46:21.884Z,30.30
2017-08-05T11:48:49.630Z,30.50
2017-08-05T11:51:17.407Z,30.60
2017-08-05T11:53:46.439Z,30.70
2017-08-05T11:56:14.616Z,30.90
2017-08-05T11:58:43.163Z,31.40
2017-08-05T12:01:11.747Z,31.30
2017-08-05T12:03:40.643Z,31.00
2017-08-05T12:06:08.401Z,30.80
2017-08-05T12:08:36.126Z,30.50
2017-08-05T12:11:04.621Z,30.60
2017-08-05T12:13:32.375Z,30.60
2017-08-05T12:16:00.916Z,31.20
2017-08-05T12:18:29.446Z,31.20
2017-08-05T12:20:57.199Z,31.40
2017-08-05T12:23:25.943Z,31.50
2017-08-05T12:25:53.694Z,32.10
2017-08-05T12:28:21.439Z,32.60
2017-08-05T12:30:49.181Z,32.80
2017-08-05T12:33:16.931Z,32.80
2017-08-05T12:35:44.676Z,32.90
2017-08-05T12:38:12.443Z,33.00
2017-08-05T12:40:40.183Z,33.40
2017-08-05T12:43:07.932Z,33.40
2017-08-05T12:45:35.705Z,33.50
2017-08-05T12:48:04.230Z,34.20
2017-08-05T12:50:33.190Z,34.10
2017-08-05T12:53:00.938Z,34.30
2017-08-05T12:55:28.684Z,34.90
2017-08-05T12:57:56.441Z,35.40
2017-08-05T13:00:24.284Z,35.90
2017-08-05T13:02:52.021Z,36.00
2017-08-05T13:05:20.402Z,36.40
2017-08-05T13:07:48.135Z,36.70
2017-08-05T13:10:15.923Z,36.60
2017-08-05T13:12:43.683Z,36.70
2017-08-05T13:15:11.424Z,36.70
2017-08-05T13:17:39.151Z,37.30
2017-08-05T13:20:06.939Z,37.90
2017-08-05T13:22:35.563Z,38.00
2017-08-05T13:25:03.964Z,38.30
2017-08-05T13:27:32.620Z,38.70
2017-08-05T13:30:00.351Z,38.50
2017-08-05T13:32:28.747Z,38.60
2017-08-05T13:34:56.514Z,38.50
2017-08-05T13:37:24.277Z,38.50
2017-08-05T13:39:52.003Z,38.80
2017-08-05T13:42:20.726Z,39.20
2017-08-05T13:44:48.504Z,39.30
2017-08-05T13:47:16.252Z,40.40
2017-08-05T13:49:44.003Z,41.50
2017-08-05T13:52:11.788Z,41.80
2017-08-05T13:54:39.542Z,42.20
2017-08-05T13:57:07.317Z,42.10
2017-08-05T13:59:35.044Z,42.30
2017-08-05T14:02:02.813Z,41.90
2017-08-05T14:04:30.583Z,41.70
2017-08-05T14:06:58.314Z,42.70
2017-08-05T14:09:26.723Z,43.60
2017-08-05T14:11:54.451Z,44.30
2017-08-05T14:14:22.228Z,43.90
2017-08-05T14:16:49.968Z,44.20
2017-08-05T14:19:17.678Z,44.60
2017-08-05T14:21:45.489Z,44.50
2017-08-05T14:24:13.235Z,44.70
2017-08-05T14:26:41.013Z,44.10
2017-08-05T14:29:08.738Z,44.00
2017-08-05T14:31:37.760Z,44.50
2017-08-05T14:34:05.490Z,45.40
2017-08-05T14:36:33.210Z,46.00
2017-08-05T14:39:00.987Z,45.20
2017-08-05T14:41:29.887Z,43.10
2017-08-05T14:43:58.414Z,42.80
2017-08-05T14:46:26.167Z,42.70
2017-08-05T14:48:53.927Z,42.40
2017-08-05T14:51:21.682Z,42.70
2017-08-05T14:53:49.437Z,41.80
2017-08-05T14:56:17.294Z,39.90
2017-08-05T14:58:45.067Z,38.70
2017-08-05T15:01:12.839Z,37.70
2017-08-05T15:03:40.609Z,37.10
2017-08-05T15:06:17.312Z,36.80
2017-08-05T15:08:45.075Z,36.50
2017-08-05T15:11:16.515Z,35.90
2017-08-05T15:13:44.291Z,35.70
2017-08-05T15:16:12.097Z,35.60
2017-08-05T15:18:39.863Z,35.40
2017-08-05T15:21:10.060Z,35.50
2017-08-05T15:23:37.859Z,35.50
2017-08-05T15:26:06.405Z,35.20
2017-08-05T15:28:34.412Z,35.20
2017-08-05T15:31:02.180Z,35.10
2017-08-05T15:33:30.124Z,34.90
2017-08-05T15:35:58.040Z,34.90
2017-08-05T15:38:25.925Z,34.90
2017-08-05T15:40:54.565Z,34.70
2017-08-05T15:43:22.289Z,34.60
2017-08-05T15:45:50.068Z,34.60
2017-08-05T15:48:17.923Z,34.40
2017-08-05T15:50:45.655Z,34.10
2017-08-05T15:53:14.800Z,34.10
2017-08-05T15:55:42.543Z,34.50
2017-08-05T15:58:11.981Z,34.30
2017-08-05T16:00:39.726Z,33.90
2017-08-05T16:03:07.495Z,33.80
2017-08-05T16:05:35.248Z,33.60
2017-08-05T16:08:03.743Z,33.50
2017-08-05T16:10:32.232Z,33.80
2017-08-05T16:13:00.772Z,34.00
2017-08-05T16:15:31.155Z,34.00
2017-08-05T16:17:58.893Z,33.60
2017-08-05T16:20:26.659Z,33.30
2017-08-05T16:22:54.416Z,32.80
2017-08-05T16:25:22.176Z,32.60
2017-08-05T16:27:51.513Z,32.40
2017-08-05T16:30:20.056Z,32.60
2017-08-05T16:32:48.047Z,32.60
2017-08-05T16:35:16.191Z,32.80
2017-08-05T16:37:43.928Z,32.80
2017-08-05T16:40:11.799Z,32.80
2017-08-05T16:42:40.363Z,32.90
2017-08-05T16:45:08.183Z,32.90
2017-08-05T16:47:38.137Z,33.00
2017-08-05T16:50:06.135Z,32.70
2017-08-05T16:52:33.892Z,32.50
2017-08-05T16:55:01.632Z,32.30
2017-08-05T16:57:29.455Z,32.10
2017-08-05T16:59:57.210Z,32.10
2017-08-05T17:02:25.988Z,32.00
2017-08-05T17:04:53.737Z,32.00
2017-08-05T17:07:21.580Z,31.80
2017-08-05T17:09:49.341Z,31.70
2017-08-05T17:12:17.088Z,31.60
2017-08-05T17:14:45.846Z,31.50
2017-08-05T17:17:13.579Z,31.40
2017-08-05T17:19:41.337Z,31.40
2017-08-05T17:22:09.082Z,31.30
2017-08-05T17:24:37.069Z,31.10
2017-08-05T17:27:04.828Z,31.10
2017-08-05T17:29:32.563Z,31.20
2017-08-05T17:32:01.130Z,31.20
2017-08-05T17:34:30.267Z,32.40
2017-08-05T17:36:58.387Z,34.90
2017-08-05T17:39:26.123Z,36.50
2017-08-05T17:41:53.877Z,38.40
2017-08-05T17:44:21.624Z,39.20
2017-08-05T17:46:49.330Z,39.60
2017-08-05T17:49:17.067Z,39.50
2017-08-05T17:51:44.849Z,37.40
2017-08-05T17:54:12.579Z,35.80
2017-08-05T17:56:40.339Z,34.70
2017-08-05T17:59:08.903Z,33.80
2017-08-05T18:01:37.583Z,33.00
2017-08-05T18:04:05.338Z,32.60
2017-08-05T18:06:33.110Z,32.20
2017-08-05T18:09:00.846Z,32.00
2017-08-05T18:11:28.592Z,31.80
2017-08-05T18:13:56.327Z,31.50
2017-08-05T18:16:24.086Z,31.20
2017-08-05T18:18:51.847Z,30.90
2017-08-05T18:21:19.604Z,30.80
2017-08-05T18:23:47.982Z,30.60
2017-08-05T18:26:15.896Z,30.30
2017-08-05T18:28:44.779Z,30.10
2017-08-05T18:31:13.066Z,29.90
2017-08-05T18:33:40.833Z,29.50
2017-08-05T18:36:08.786Z,29.20
2017-08-05T18:38:36.681Z,28.90
2017-08-05T18:41:04.462Z,28.70
2017-08-05T18:43:32.204Z,28.60
2017-08-05T18:45:59.963Z,28.50
2017-08-05T18:48:27.706Z,28.40
2017-08-05T18:50:55.434Z,28.30
2017-08-05T18:53:24.063Z,28.10
2017-08-05T18:55:51.852Z,28.10
2017-08-05T18:58:19.591Z,28.00
2017-08-05T19:00:47.358Z,27.90
2017-08-05T19:03:15.578Z,27.90
2017-08-05T19:05:44.080Z,27.90
2017-08-05T19:08:11.819Z,27.80
2017-08-05T19:10:39.916Z,27.80
2017-08-05T19:13:07.661Z,27.90
2017-08-05T19:15:35.366Z,27.90
2017-08-05T19:18:04.115Z,27.90
2017-08-05T19:20:31.859Z,28.00
2017-08-05T19:22:59.596Z,28.00
2017-08-05T19:25:27.327Z,28.00
2017-08-05T19:27:55.044Z,28.00
2017-08-05T19:30:22.809Z,28.00
2017-08-05T19:32:50.532Z,27.90
2017-08-05T19:35:18.317Z,27.90
2017-08-05T19:37:46.049Z,27.80
2017-08-05T19:40:14.627Z,27.80
2017-08-05T19:42:42.692Z,27.80
2017-08-05T19:45:10.830Z,27.70
2017-08-05T19:47:39.077Z,27.60
2017-08-05T19:50:07.123Z,27.50
2017-08-05T19:52:34.868Z,27.40
2017-08-05T19:55:02.595Z,27.30
2017-08-05T19:57:30.324Z,27.30
2017-08-05T19:59:59.207Z,27.10
2017-08-05T20:02:26.931Z,27.10
2017-08-05T20:04:55.425Z,27.10
2017-08-05T20:07:23.168Z,27.10
2017-08-05T20:09:52.116Z,26.90
2017-08-05T20:12:19.880Z,26.80
2017-08-05T20:14:47.639Z,26.70
2017-08-05T20:17:15.384Z,26.70
2017-08-05T20:19:43.213Z,26.70
2017-08-05T20:22:11.158Z,26.60
2017-08-05T20:24:38.880Z,26.60
2017-08-05T20:27:06.834Z,26.60
2017-08-05T20:29:34.602Z,26.60
2017-08-05T20:32:02.319Z,26.60
2017-08-05T20:34:30.152Z,26.60
2017-08-05T20:36:58.007Z,26.50
2017-08-05T20:39:27.462Z,26.40
2017-08-05T20:41:55.182Z,26.40
2017-08-05T20:44:22.932Z,26.30
2017-08-05T20:46:50.678Z,26.30
2017-08-05T20:49:18.406Z,26.20
2017-08-05T20:51:46.151Z,26.10
2017-08-05T20:54:13.971Z,26.10
2017-08-05T20:56:41.716Z,26.00
2017-08-05T20:59:09.461Z,26.00
2017-08-05T21:01:37.201Z,26.00
2017-08-05T21:04:04.924Z,26.00
2017-08-05T21:06:32.646Z,26.00
2017-08-05T21:09:00.354Z,26.10
2017-08-05T21:11:28.620Z,26.00
2017-08-05T21:13:57.136Z,25.90
2017-08-05T21:16:24.859Z,25.90
2017-08-05T21:18:52.605Z,25.80
2017-08-05T21:21:20.332Z,25.70
2017-08-05T21:23:48.075Z,25.60
2017-08-05T21:26:16.598Z,25.50
2017-08-05T21:28:44.323Z,25.40
2017-08-05T21:31:12.059Z,25.30
2017-08-05T21:33:41.154Z,25.20
2017-08-05T21:36:08.880Z,25.10
2017-08-05T21:38:36.616Z,24.90
2017-08-05T21:41:04.383Z,24.90
2017-08-05T21:43:32.232Z,24.90
2017-08-05T21:45:59.975Z,24.80
2017-08-05T21:48:27.742Z,24.70
2017-08-05T21:50:55.516Z,24.70
2017-08-05T21:53:23.296Z,24.70
2017-08-05T21:55:51.034Z,24.70
2017-08-05T21:58:18.759Z,24.60
2017-08-05T22:00:46.580Z,24.60
2017-08-05T22:03:14.326Z,24.50
2017-08-05T22:05:43.051Z,24.40
2017-08-05T22:08:10.786Z,24.40
2017-08-05T22:10:38.501Z,24.40
2017-08-05T22:13:06.225Z,24.40
2017-08-05T22:15:33.936Z,24.30
2017-08-05T22:18:01.672Z,24.30
2017-08-05T22:20:29.384Z,24.20
2017-08-05T22:22:57.246Z,24.20
2017-08-05T22:25:24.982Z,24.20
2017-08-05T22:27:52.719Z,24.20
2017-08-05T22:30:20.446Z,24.20
2017-08-05T22:32:48.174Z,24.10
2017-08-05T22:35:15.935Z,24.10
2017-08-05T22:37:43.677Z,24.10
2017-08-05T22:40:11.402Z,24.00
2017-08-05T22:42:39.147Z,23.80
2017-08-05T22:45:06.859Z,23.80
2017-08-05T22:47:35.542Z,23.70
2017-08-05T22:50:03.283Z,23.70
2017-08-05T22:52:32.732Z,23.60
2017-08-05T22:55:00.458Z,23.40
2017-08-05T22:57:28.201Z,23.40
2017-08-05T22:59:55.920Z,23.20
2017-08-05T23:02:23.763Z,23.10
2017-08-05T23:04:51.515Z,23.10
2017-08-05T23:07:19.260Z,23.10
2017-08-05T23:09:48.026Z,23.10
2017-08-05T23:12:15.763Z,22.90
2017-08-05T23:14:43.511Z,22.80
2017-08-05T23:17:11.244Z,22.80
2017-08-05T23:19:38.951Z,22.80
2017-08-05T23:22:06.790Z,22.70
2017-08-05T23:24:34.551Z,22.80
2017-08-05T23:27:02.407Z,22.80
2017-08-05T23:29:30.123Z,22.60
2017-08-05T23:31:57.863Z,22.60
2017-08-05T23:34:25.640Z,22.60
2017-08-05T23:36:53.357Z,22.60
2017-08-05T23:39:21.112Z,22.60
2017-08-05T23:41:49.799Z,22.50
2017-08-05T23:44:17.544Z,22.30
2017-08-05T23:46:45.279Z,22.20
2017-08-05T23:49:13.007Z,22.30
2017-08-05T23:51:42.150Z,22.40
2017-08-05T23:54:09.869Z,22.30
2017-08-05T23:56:37.628Z,22.10
2017-08-05T23:59:05.339Z,22.10
